createdAt,value
2023-08-15T00:00:51.191Z,57.71
2023-08-15T00:03:52.804Z,57.77
2023-08-15T00:06:54.540Z,57.65
2023-08-15T00:09:56.213Z,57.33
2023-08-15T00:12:57.949Z,56.92
2023-08-15T00:16:00.988Z,57.25
2023-08-15T00:19:02.734Z,57.35
2023-08-15T00:22:04.443Z,58.47
2023-08-15T00:25:06.434Z,58.29
2023-08-15T00:28:08.106Z,58.34
2023-08-15T00:31:11.163Z,59.02
2023-08-15T00:34:12.720Z,59.33
2023-08-15T00:37:14.390Z,59.12
2023-08-15T00:40:16.191Z,59.08
2023-08-15T00:43:17.808Z,60.25
2023-08-15T00:46:20.958Z,59.49
2023-08-15T00:49:23.072Z,60.27
2023-08-15T00:52:24.847Z,60.06
2023-08-15T00:55:27.346Z,60.90
2023-08-15T00:58:30.454Z,60.09
2023-08-15T01:01:34.419Z,60.60
2023-08-15T01:04:38.670Z,61.09
2023-08-15T01:07:40.391Z,60.57
2023-08-15T01:10:43.755Z,59.36
2023-08-15T01:13:54.106Z,59.13
2023-08-15T01:16:58.292Z,59.85
2023-08-15T01:20:05.258Z,60.54
2023-08-15T01:23:08.361Z,60.13
2023-08-15T01:26:11.421Z,59.66
2023-08-15T01:29:13.132Z,59.84
2023-08-15T01:32:28.114Z,59.61
2023-08-15T01:35:34.552Z,60.40
2023-08-15T01:38:40.937Z,60.94
2023-08-15T01:41:46.535Z,59.77
2023-08-15T01:44:49.087Z,59.76
2023-08-15T01:47:52.503Z,60.04
2023-08-15T01:50:54.245Z,60.55
2023-08-15T01:53:55.992Z,60.14
2023-08-15T01:56:59.082Z,60.41
2023-08-15T02:00:00.739Z,60.46
2023-08-15T02:03:02.482Z,60.12
2023-08-15T02:06:04.691Z,59.83
2023-08-15T02:09:06.436Z,61.09
2023-08-15T02:12:09.704Z,60.74
2023-08-15T02:15:11.387Z,61.55
2023-08-15T02:18:13.125Z,61.39
2023-08-15T02:21:14.789Z,61.36
2023-08-15T02:24:16.474Z,61.61
2023-08-15T02:27:19.701Z,61.65
2023-08-15T02:30:21.548Z,62.23
2023-08-15T02:33:23.265Z,62.70
2023-08-15T02:36:24.973Z,63.33
2023-08-15T02:39:26.622Z,62.47
2023-08-15T02:42:29.671Z,62.19
2023-08-15T02:45:31.622Z,62.13
2023-08-15T02:48:33.302Z,62.97
2023-08-15T02:51:34.993Z,62.18
2023-08-15T02:54:36.654Z,62.06
2023-08-15T02:57:39.766Z,61.92
2023-08-15T03:00:41.257Z,61.57
2023-08-15T03:03:42.972Z,62.83
2023-08-15T03:06:44.673Z,62.33
2023-08-15T03:09:46.434Z,62.12
2023-08-15T03:12:49.430Z,62.28
2023-08-15T03:15:52.894Z,62.18
2023-08-15T03:18:54.674Z,62.67
2023-08-15T03:21:57.768Z,62.61
2023-08-15T03:24:59.315Z,61.72
2023-08-15T03:28:02.194Z,61.86
2023-08-15T03:31:08.746Z,61.56
2023-08-15T03:34:10.538Z,61.82
2023-08-15T03:37:12.286Z,62.17
2023-08-15T03:40:14.228Z,62.11
2023-08-15T03:43:17.304Z,60.93
2023-08-15T03:46:19.512Z,61.29
2023-08-15T03:49:21.299Z,61.73
2023-08-15T03:52:23.011Z,61.80
2023-08-15T03:55:24.706Z,60.90
2023-08-15T03:58:27.819Z,61.16
2023-08-15T04:01:29.284Z,61.84
2023-08-15T04:04:30.781Z,61.85
2023-08-15T04:07:32.529Z,61.27
2023-08-15T04:10:35.246Z,61.52
2023-08-15T04:13:39.792Z,61.79
2023-08-15T04:16:41.825Z,61.49
2023-08-15T04:19:44.904Z,61.30
2023-08-15T04:22:46.609Z,61.16
2023-08-15T04:25:49.742Z,61.39
2023-08-15T04:28:53.874Z,61.18
2023-08-15T04:31:55.720Z,60.59
2023-08-15T04:34:57.494Z,60.93
2023-08-15T04:37:59.198Z,60.80
2023-08-15T04:41:00.898Z,60.29
2023-08-15T04:44:04.148Z,59.92
2023-08-15T04:47:06.161Z,60.42
2023-08-15T04:50:08.978Z,60.13
2023-08-15T04:53:10.676Z,60.62
2023-08-15T04:56:12.334Z,60.01
2023-08-15T04:59:15.428Z,59.61
2023-08-15T05:02:16.867Z,59.91
2023-08-15T05:05:18.445Z,59.44
2023-08-15T05:08:20.149Z,59.14
2023-08-15T05:11:23.170Z,60.00
2023-08-15T05:14:27.152Z,58.99
2023-08-15T05:17:31.877Z,59.82
2023-08-15T05:20:33.872Z,59.38
2023-08-15T05:23:35.505Z,59.38
2023-08-15T05:26:37.270Z,59.27
2023-08-15T05:29:58.920Z,59.21
2023-08-15T05:33:01.380Z,59.17
2023-08-15T05:36:03.274Z,58.89
2023-08-15T05:39:05.203Z,59.21
2023-08-15T05:42:07.137Z,58.17
2023-08-15T05:45:11.107Z,58.08
2023-08-15T05:48:12.850Z,57.69
2023-08-15T05:51:14.572Z,58.01
2023-08-15T05:54:16.280Z,57.62
2023-08-15T05:57:17.942Z,57.71
2023-08-15T06:00:21.095Z,57.11
2023-08-15T06:03:39.756Z,56.90
2023-08-15T06:06:45.714Z,57.05
2023-08-15T06:09:47.378Z,56.61
2023-08-15T06:12:49.075Z,56.61
2023-08-15T06:15:52.119Z,57.32
2023-08-15T06:18:53.605Z,57.11
2023-08-15T06:21:55.279Z,57.21
2023-08-15T06:24:57.185Z,56.48
2023-08-15T06:27:58.847Z,56.16
2023-08-15T06:31:01.897Z,56.19
2023-08-15T06:34:03.974Z,55.40
2023-08-15T06:37:05.726Z,55.71
2023-08-15T06:40:08.900Z,56.83
2023-08-15T06:43:10.593Z,56.31
2023-08-15T06:46:13.781Z,56.08
2023-08-15T06:49:15.483Z,56.46
2023-08-15T06:52:17.133Z,55.82
2023-08-15T06:55:18.829Z,55.67
2023-08-15T06:58:20.947Z,56.15
2023-08-15T07:01:24.064Z,55.20
2023-08-15T07:04:25.828Z,54.92
2023-08-15T07:07:27.494Z,55.43
2023-08-15T07:10:29.134Z,55.10
2023-08-15T07:13:30.819Z,55.05
2023-08-15T07:16:33.967Z,56.34
2023-08-15T07:19:35.689Z,55.06
2023-08-15T07:22:37.374Z,54.19
2023-08-15T07:25:39.032Z,54.90
2023-08-15T07:28:40.772Z,53.97
2023-08-15T07:31:43.823Z,54.43
2023-08-15T07:34:45.517Z,53.73
2023-08-15T07:37:47.199Z,52.96
2023-08-15T07:40:48.852Z,53.06
2023-08-15T07:43:50.523Z,53.45
2023-08-15T07:46:53.555Z,52.41
2023-08-15T07:50:13.546Z,52.73
2023-08-15T07:53:15.245Z,51.77
2023-08-15T07:56:16.972Z,52.60
2023-08-15T07:59:18.671Z,52.92
2023-08-15T08:02:21.912Z,52.57
2023-08-15T08:05:24.031Z,52.51
2023-08-15T08:08:25.789Z,52.42
2023-08-15T08:11:27.479Z,51.37
2023-08-15T08:14:29.387Z,51.23
2023-08-15T08:17:32.526Z,51.52
2023-08-15T08:20:34.237Z,51.52
2023-08-15T08:23:35.866Z,51.46
2023-08-15T08:26:37.519Z,49.99
2023-08-15T08:29:39.175Z,50.30
2023-08-15T08:32:42.355Z,49.51
2023-08-15T08:35:44.110Z,48.27
2023-08-15T08:38:45.783Z,49.58
2023-08-15T08:41:47.756Z,50.34
2023-08-15T08:44:50.296Z,49.92
2023-08-15T08:47:53.759Z,48.67
2023-08-15T08:50:57.008Z,48.07
2023-08-15T08:53:58.847Z,48.74
2023-08-15T08:57:01.886Z,47.99
2023-08-15T09:00:04.211Z,48.63
2023-08-15T09:03:08.441Z,48.07
2023-08-15T09:06:10.413Z,47.81
2023-08-15T09:09:13.370Z,47.72
2023-08-15T09:12:33.342Z,47.21
2023-08-15T09:15:35.623Z,46.43
2023-08-15T09:18:38.763Z,46.74
2023-08-15T09:21:40.775Z,47.21
2023-08-15T09:24:45.270Z,46.45
2023-08-15T09:27:47.498Z,45.67
2023-08-15T09:30:53.345Z,46.55
2023-08-15T09:33:57.000Z,45.76
2023-08-15T09:36:59.075Z,44.76
2023-08-15T09:40:01.835Z,45.50
2023-08-15T09:43:04.006Z,44.60
2023-08-15T09:46:05.757Z,44.03
2023-08-15T09:49:09.380Z,45.02
2023-08-15T09:52:12.111Z,45.13
2023-08-15T09:55:15.446Z,43.19
2023-08-15T09:58:17.124Z,43.52
2023-08-15T10:01:20.284Z,44.63
2023-08-15T10:04:24.185Z,44.43
2023-08-15T10:07:28.307Z,43.80
2023-08-15T10:10:34.021Z,42.41
2023-08-15T10:13:37.903Z,42.97
2023-08-15T10:16:39.797Z,43.05
2023-08-15T10:19:46.365Z,42.80
2023-08-15T10:22:50.494Z,42.09
2023-08-15T10:25:53.658Z,41.90
2023-08-15T10:28:57.420Z,40.49
2023-08-15T10:31:59.739Z,39.70
2023-08-15T10:35:04.414Z,40.93
2023-08-15T10:38:14.322Z,38.97
2023-08-15T10:41:17.502Z,39.21
2023-08-15T10:44:19.253Z,39.63
2023-08-15T10:47:24.310Z,41.38
2023-08-15T10:50:27.692Z,42.21
2023-08-15T10:53:29.400Z,41.63
2023-08-15T10:56:32.941Z,38.61
2023-08-15T10:59:37.146Z,39.92
2023-08-15T11:02:38.967Z,38.98
2023-08-15T11:05:42.185Z,37.65
2023-08-15T11:08:45.009Z,37.70
2023-08-15T11:11:47.043Z,39.31
2023-08-15T11:14:49.854Z,39.11
2023-08-15T11:17:51.643Z,40.82
2023-08-15T11:20:54.853Z,38.29
2023-08-15T11:23:59.305Z,38.67
2023-08-15T11:27:00.994Z,38.59
2023-08-15T11:30:02.700Z,37.69
2023-08-15T11:33:05.087Z,38.21
2023-08-15T11:36:08.964Z,38.77
2023-08-15T11:39:14.282Z,38.72
2023-08-15T11:42:16.270Z,39.27
2023-08-15T11:45:19.898Z,38.83
2023-08-15T11:48:22.018Z,38.33
2023-08-15T11:51:25.026Z,37.24
2023-08-15T11:54:27.092Z,37.88
2023-08-15T11:57:35.025Z,36.63
2023-08-15T12:03:40.817Z,37.18
2023-08-15T12:06:43.941Z,37.36
2023-08-15T12:09:45.620Z,36.88
2023-08-15T12:12:48.102Z,35.87
2023-08-15T12:15:49.803Z,37.94
2023-08-15T12:18:51.470Z,35.93
2023-08-15T12:21:54.509Z,36.33
2023-08-15T12:24:56.576Z,40.28
2023-08-15T12:27:58.193Z,36.77
2023-08-15T12:30:59.944Z,36.97
2023-08-15T12:34:01.648Z,37.55
2023-08-15T12:37:04.825Z,39.70
2023-08-15T12:40:14.838Z,37.56
2023-08-15T12:43:23.590Z,38.92
2023-08-15T12:46:25.300Z,36.96
2023-08-15T12:49:26.957Z,35.80
2023-08-15T12:52:30.186Z,35.03
2023-08-15T12:55:31.868Z,34.81
2023-08-15T12:58:33.562Z,37.24
2023-08-15T13:01:35.692Z,38.74
2023-08-15T13:04:37.490Z,38.33
2023-08-15T13:07:40.603Z,35.75
2023-08-15T13:10:44.133Z,36.51
2023-08-15T13:13:45.975Z,34.87
2023-08-15T13:16:47.918Z,34.53
2023-08-15T13:19:49.581Z,35.52
2023-08-15T13:22:52.669Z,34.41
2023-08-15T13:25:54.389Z,33.82
2023-08-15T13:28:56.034Z,34.49
2023-08-15T13:31:57.715Z,35.33
2023-08-15T13:34:59.420Z,34.53
2023-08-15T13:38:02.487Z,33.82
2023-08-15T13:41:04.928Z,32.41
2023-08-15T13:44:06.955Z,35.62
2023-08-15T13:47:08.685Z,33.77
2023-08-15T13:50:10.874Z,34.14
2023-08-15T13:53:13.993Z,33.96
2023-08-15T13:56:16.692Z,34.46
2023-08-15T13:59:18.321Z,31.91
2023-08-15T14:02:20.529Z,32.38
2023-08-15T14:05:22.770Z,32.65
2023-08-15T14:08:26.561Z,32.53
2023-08-15T14:11:28.343Z,33.68
2023-08-15T14:14:30.059Z,32.63
2023-08-15T14:17:31.981Z,32.83
2023-08-15T14:20:35.729Z,33.53
2023-08-15T14:23:38.974Z,32.69
2023-08-15T14:26:40.857Z,32.54
2023-08-15T14:29:42.651Z,31.52
2023-08-15T14:32:44.447Z,32.45
2023-08-15T14:35:46.190Z,31.73
2023-08-15T14:38:50.563Z,32.96
2023-08-15T14:41:52.444Z,32.66
2023-08-15T14:44:55.088Z,34.10
2023-08-15T14:47:56.686Z,34.49
2023-08-15T14:50:58.387Z,33.52
2023-08-15T14:54:01.489Z,33.91
2023-08-15T14:57:03.177Z,33.74
2023-08-15T15:00:06.267Z,34.90
2023-08-15T15:03:08.006Z,34.38
2023-08-15T15:06:09.748Z,33.71
2023-08-15T15:09:12.816Z,35.23
2023-08-15T15:12:14.513Z,33.78
2023-08-15T15:15:16.224Z,34.50
2023-08-15T15:18:17.988Z,34.84
2023-08-15T15:21:19.662Z,34.37
2023-08-15T15:24:23.142Z,34.78
2023-08-15T15:27:24.887Z,34.64
2023-08-15T15:30:26.791Z,34.81
2023-08-15T15:33:29.030Z,35.15
2023-08-15T15:36:30.733Z,35.05
2023-08-15T15:39:34.134Z,34.94
2023-08-15T15:42:35.799Z,34.67
2023-08-15T15:45:37.802Z,34.99
2023-08-15T15:48:39.615Z,35.66
2023-08-15T15:51:41.339Z,36.06
2023-08-15T15:54:44.344Z,36.27
2023-08-15T15:57:46.018Z,35.59
2023-08-15T16:00:47.670Z,36.22
2023-08-15T16:03:49.414Z,36.39
2023-08-15T16:06:51.219Z,36.58
2023-08-15T16:09:54.222Z,37.11
2023-08-15T16:12:55.863Z,38.07
2023-08-15T16:15:57.541Z,38.04
2023-08-15T16:18:59.216Z,38.32
2023-08-15T16:22:00.918Z,38.67
2023-08-15T16:25:04.577Z,38.87
2023-08-15T16:28:06.889Z,38.96
2023-08-15T16:31:08.620Z,41.14
2023-08-15T16:34:10.360Z,42.19
2023-08-15T16:37:12.107Z,41.58
2023-08-15T16:40:15.365Z,44.25
2023-08-15T16:43:18.236Z,45.37
2023-08-15T16:46:19.998Z,47.38
2023-08-15T16:49:22.204Z,48.17
2023-08-15T16:52:24.906Z,48.88
2023-08-15T16:55:29.794Z,49.14
2023-08-15T16:58:31.996Z,49.97
2023-08-15T17:01:33.712Z,48.20
2023-08-15T17:04:35.432Z,47.55
2023-08-15T17:07:38.667Z,49.55
2023-08-15T17:10:41.763Z,49.56
2023-08-15T17:13:46.886Z,50.65
2023-08-15T17:16:50.053Z,51.45
2023-08-15T17:19:51.626Z,50.65
2023-08-15T17:22:53.337Z,51.08
2023-08-15T17:26:00.575Z,52.06
2023-08-15T17:29:05.295Z,51.49
2023-08-15T17:32:07.553Z,51.59
2023-08-15T17:35:09.553Z,51.55
2023-08-15T17:38:13.188Z,51.33
2023-08-15T17:41:16.956Z,50.91
2023-08-15T17:44:18.659Z,50.83
2023-08-15T17:47:20.383Z,50.74
2023-08-15T17:50:22.105Z,50.78
2023-08-15T17:53:23.824Z,51.02
2023-08-15T17:56:27.474Z,50.81
2023-08-15T17:59:29.966Z,52.03
2023-08-15T18:02:32.745Z,52.22
2023-08-15T18:05:35.079Z,52.95
2023-08-15T18:08:37.813Z,53.38
2023-08-15T18:11:41.656Z,53.96
2023-08-15T18:14:43.369Z,52.85
2023-08-15T18:17:45.117Z,52.76
2023-08-15T18:20:47.832Z,53.29
2023-08-15T18:23:50.018Z,54.80
2023-08-15T18:26:53.165Z,54.48
2023-08-15T18:29:55.366Z,55.06
2023-08-15T18:32:57.694Z,54.47
2023-08-15T18:35:59.964Z,54.50
2023-08-15T18:39:02.201Z,54.65
2023-08-15T18:42:06.719Z,53.09
2023-08-15T18:45:09.581Z,52.74
2023-08-15T18:48:12.151Z,52.92
2023-08-15T18:51:13.953Z,53.46
2023-08-15T18:54:16.612Z,52.84
2023-08-15T18:57:20.195Z,52.26
2023-08-15T19:00:22.912Z,52.51
2023-08-15T19:03:26.705Z,54.03
2023-08-15T19:06:29.007Z,55.63
2023-08-15T19:09:31.729Z,55.54
2023-08-15T19:12:36.082Z,56.18
2023-08-15T19:15:39.389Z,56.42
2023-08-15T19:18:42.066Z,56.68
2023-08-15T19:21:44.548Z,56.61
2023-08-15T19:24:46.667Z,56.16
2023-08-15T19:27:50.582Z,56.51
2023-08-15T19:31:01.584Z,56.70
2023-08-15T19:34:04.073Z,56.51
2023-08-15T19:37:06.285Z,56.43
2023-08-15T19:40:09.901Z,56.36
2023-08-15T19:43:13.698Z,55.91
2023-08-15T19:46:16.005Z,57.11
2023-08-15T19:49:18.189Z,57.80
2023-08-15T19:52:21.203Z,58.36
2023-08-15T19:55:23.841Z,58.49
2023-08-15T19:58:27.358Z,57.47
2023-08-15T20:01:29.535Z,57.20
2023-08-15T20:04:31.795Z,57.88
2023-08-15T20:07:35.814Z,57.65
2023-08-15T20:10:40.144Z,57.86
2023-08-15T20:13:44.166Z,58.01
2023-08-15T20:16:46.554Z,57.54
2023-08-15T20:19:48.604Z,57.45
2023-08-15T20:22:51.044Z,56.89
2023-08-15T20:25:53.247Z,56.62
2023-08-15T20:28:56.316Z,56.59
2023-08-15T20:31:58.161Z,56.45
2023-08-15T20:35:00.205Z,56.25
2023-08-15T20:38:02.314Z,56.47
2023-08-15T20:41:04.500Z,56.02
2023-08-15T20:44:08.160Z,55.87
2023-08-15T20:47:09.886Z,56.17
2023-08-15T20:50:11.677Z,56.37
2023-08-15T20:53:13.404Z,56.43
2023-08-15T20:56:15.081Z,57.13
2023-08-15T20:59:18.169Z,57.29
2023-08-15T21:02:19.795Z,56.94
2023-08-15T21:05:21.482Z,57.41
2023-08-15T21:08:23.148Z,56.82
2023-08-15T21:11:24.836Z,56.79
2023-08-15T21:14:27.982Z,57.33
2023-08-15T21:17:29.607Z,57.01
2023-08-15T21:20:31.368Z,56.96
2023-08-15T21:23:33.046Z,57.32
2023-08-15T21:26:35.958Z,57.95
2023-08-15T21:29:40.208Z,57.64
2023-08-15T21:32:41.945Z,56.99
2023-08-15T21:35:43.851Z,56.70
2023-08-15T21:38:45.591Z,56.49
2023-08-15T21:41:47.297Z,58.14
2023-08-15T21:44:50.392Z,57.49
2023-08-15T21:47:51.959Z,57.67
2023-08-15T21:50:53.626Z,57.82
2023-08-15T21:53:55.325Z,57.56
2023-08-15T21:57:03.643Z,57.56
2023-08-15T22:00:08.147Z,57.65
2023-08-15T22:03:10.103Z,59.24
2023-08-15T22:06:11.920Z,58.16
2023-08-15T22:09:13.651Z,58.21
2023-08-15T22:12:15.333Z,57.53
2023-08-15T22:15:19.054Z,57.82
2023-08-15T22:18:21.867Z,58.39
2023-08-15T22:21:23.881Z,58.06
2023-08-15T22:24:25.569Z,58.53
2023-08-15T22:27:27.305Z,57.72
2023-08-15T22:30:30.718Z,58.06
2023-08-15T22:33:32.453Z,57.98
2023-08-15T22:36:34.124Z,57.98
2023-08-15T22:39:35.806Z,57.92
2023-08-15T22:42:37.455Z,58.52
2023-08-15T22:45:40.539Z,57.85
2023-08-15T22:48:42.054Z,58.10
2023-08-15T22:51:43.565Z,58.94
2023-08-15T22:54:45.214Z,57.65
2023-08-15T22:57:46.931Z,58.46
2023-08-15T23:00:55.000Z,59.08
2023-08-15T23:03:56.768Z,58.84
2023-08-15T23:06:58.464Z,58.90
2023-08-15T23:10:00.175Z,59.29
2023-08-15T23:13:01.838Z,59.25
2023-08-15T23:16:05.358Z,58.56
2023-08-15T23:19:07.018Z,59.66
2023-08-15T23:22:08.665Z,59.30
2023-08-15T23:25:10.321Z,59.44
2023-08-15T23:28:12.356Z,59.51
2023-08-15T23:31:15.424Z,60.97
2023-08-15T23:34:17.551Z,61.21
2023-08-15T23:37:19.283Z,61.90
2023-08-15T23:40:20.963Z,60.93
2023-08-15T23:43:22.697Z,61.22
2023-08-15T23:46:25.880Z,61.93
2023-08-15T23:49:27.377Z,61.58
2023-08-15T23:52:28.817Z,61.75
2023-08-15T23:55:30.496Z,61.75
2023-08-15T23:58:32.179Z,62.42
